sensor_id;sensor_type;location;lat;lon;timestamp;pressure;altitude;pressure_sealevel;temperature;humidity
49759;BME280;70329;45.524;10.194;2023-11-22T00:01:26;99715.78;;;7.66;100.00
49759;BME280;70329;45.524;10.194;2023-11-22T00:03:54;99725.31;;;7.58;100.00
49759;BME280;70329;45.524;10.194;2023-11-22T00:06:22;99718.50;;;7.60;100.00
49759;BME280;70329;45.524;10.194;2023-11-22T00:08:50;99716.00;;;7.54;100.00
49759;BME280;70329;45.524;10.194;2023-11-22T00:11:19;99715.25;;;7.69;100.00
49759;BME280;70329;45.524;10.194;2023-11-22T00:13:47;99720.69;;;7.63;100.00
49759;BME280;70329;45.524;10.194;2023-11-22T00:16:15;99719.88;;;7.63;100.00
49759;BME280;70329;45.524;10.194;2023-11-22T00:18:43;99719.88;;;7.68;100.00
49759;BME280;70329;45.524;10.194;2023-11-22T00:21:12;99724.25;;;7.64;100.00
49759;BME280;70329;45.524;10.194;2023-11-22T00:23:40;99724.25;;;7.74;100.00
49759;BME280;70329;45.524;10.194;2023-11-22T00:26:07;99720.72;;;7.74;100.00
49759;BME280;70329;45.524;10.194;2023-11-22T00:28:37;99720.16;;;7.61;100.00
49759;BME280;70329;45.524;10.194;2023-11-22T00:31:03;99712.28;;;7.70;100.00
49759;BME280;70329;45.524;10.194;2023-11-22T00:33:30;99725.88;;;7.65;100.00
49759;BME280;70329;45.524;10.194;2023-11-22T00:35:57;99716.38;;;7.78;100.00
49759;BME280;70329;45.524;10.194;2023-11-22T00:38:25;99709.28;;;7.77;100.00
49759;BME280;70329;45.524;10.194;2023-11-22T00:40:53;99703.03;;;7.81;100.00
49759;BME280;70329;45.524;10.194;2023-11-22T00:43:19;99691.88;;;7.93;99.89
49759;BME280;70329;45.524;10.194;2023-11-22T00:45:47;99695.69;;;7.92;99.55
49759;BME280;70329;45.524;10.194;2023-11-22T00:48:15;99688.59;;;7.86;99.69
49759;BME280;70329;45.524;10.194;2023-11-22T00:50:43;99691.31;;;7.91;99.92
49759;BME280;70329;45.524;10.194;2023-11-22T00:53:11;99692.16;;;7.86;99.78
49759;BME280;70329;45.524;10.194;2023-11-22T00:55:41;99688.31;;;7.87;99.82
49759;BME280;70329;45.524;10.194;2023-11-22T00:58:09;99692.09;;;7.66;100.00
49759;BME280;70329;45.524;10.194;2023-11-22T01:00:38;99689.38;;;7.71;100.00
49759;BME280;70329;45.524;10.194;2023-11-22T01:03:08;99693.75;;;7.72;100.00
49759;BME280;70329;45.524;10.194;2023-11-22T01:05:38;99688.88;;;7.84;99.51
49759;BME280;70329;45.524;10.194;2023-11-22T01:08:06;99687.22;;;7.78;99.38
49759;BME280;70329;45.524;10.194;2023-11-22T01:10:33;99683.44;;;7.94;99.71
49759;BME280;70329;45.524;10.194;2023-11-22T01:13:02;99689.97;;;7.88;99.63
49759;BME280;70329;45.524;10.194;2023-11-22T01:15:30;99686.41;;;7.83;98.74
49759;BME280;70329;45.524;10.194;2023-11-22T01:17:59;99687.22;;;7.83;98.75
49759;BME280;70329;45.524;10.194;2023-11-22T01:20:28;99689.66;;;7.80;98.63
49759;BME280;70329;45.524;10.194;2023-11-22T01:22:56;99681.50;;;7.85;99.16
49759;BME280;70329;45.524;10.194;2023-11-22T01:25:24;99681.78;;;7.83;98.86
49759;BME280;70329;45.524;10.194;2023-11-22T01:27:54;99684.78;;;7.92;98.84
49759;BME280;70329;45.524;10.194;2023-11-22T01:30:23;99675.78;;;7.91;99.52
49759;BME280;70329;45.524;10.194;2023-11-22T01:32:50;99680.69;;;7.94;99.87
49759;BME280;70329;45.524;10.194;2023-11-22T01:35:18;99678.22;;;7.88;99.97
49759;BME280;70329;45.524;10.194;2023-11-22T01:37:47;99677.69;;;7.96;99.47
49759;BME280;70329;45.524;10.194;2023-11-22T01:40:16;99675.25;;;7.94;98.61
49759;BME280;70329;45.524;10.194;2023-11-22T01:42:45;99675.78;;;7.91;98.51
49759;BME280;70329;45.524;10.194;2023-11-22T01:45:14;99676.31;;;7.93;97.71
49759;BME280;70329;45.524;10.194;2023-11-22T01:47:41;99678.81;;;8.00;96.67
49759;BME280;70329;45.524;10.194;2023-11-22T01:50:12;99672.53;;;7.99;95.94
49759;BME280;70329;45.524;10.194;2023-11-22T01:52:41;99679.88;;;7.94;95.93
49759;BME280;70329;45.524;10.194;2023-11-22T01:55:12;99679.34;;;7.92;96.33
49759;BME280;70329;45.524;10.194;2023-11-22T01:57:40;99681.19;;;7.76;98.11
49759;BME280;70329;45.524;10.194;2023-11-22T02:00:09;99676.31;;;7.73;99.18
49759;BME280;70329;45.524;10.194;2023-11-22T02:02:41;99664.59;;;7.83;97.69
49759;BME280;70329;45.524;10.194;2023-11-22T02:05:10;99665.66;;;7.82;97.73
49759;BME280;70329;45.524;10.194;2023-11-22T02:07:37;99665.97;;;7.90;97.35
49759;BME280;70329;45.524;10.194;2023-11-22T02:10:06;99674.44;;;7.89;96.63
49759;BME280;70329;45.524;10.194;2023-11-22T02:12:36;99671.41;;;7.80;96.75
49759;BME280;70329;45.524;10.194;2023-11-22T02:15:06;99668.69;;;7.85;96.28
49759;BME280;70329;45.524;10.194;2023-11-22T02:17:33;99665.66;;;7.82;95.62
49759;BME280;70329;45.524;10.194;2023-11-22T02:20:02;99663.22;;;7.75;96.27
49759;BME280;70329;45.524;10.194;2023-11-22T02:22:33;99658.31;;;7.72;96.95
49759;BME280;70329;45.524;10.194;2023-11-22T02:25:02;99660.72;;;7.63;97.07
49759;BME280;70329;45.524;10.194;2023-11-22T02:27:31;99674.59;;;7.52;97.83
49759;BME280;70329;45.524;10.194;2023-11-22T02:29:58;99674.28;;;7.43;98.13
49759;BME280;70329;45.524;10.194;2023-11-22T02:32:26;99676.25;;;7.53;98.22
49759;BME280;70329;45.524;10.194;2023-11-22T02:34:55;99677.56;;;7.45;98.29
49759;BME280;70329;45.524;10.194;2023-11-22T02:37:23;99676.75;;;7.45;97.94
49759;BME280;70329;45.524;10.194;2023-11-22T02:40:05;99678.97;;;7.48;97.78
49759;BME280;70329;45.524;10.194;2023-11-22T02:42:38;99683.84;;;7.51;97.47
49759;BME280;70329;45.524;10.194;2023-11-22T02:45:08;99684.19;;;7.65;96.27
49759;BME280;70329;45.524;10.194;2023-11-22T02:47:36;99695.63;;;7.67;95.75
49759;BME280;70329;45.524;10.194;2023-11-22T02:50:05;99688.81;;;7.64;96.59
49759;BME280;70329;45.524;10.194;2023-11-22T02:52:32;99689.59;;;7.59;96.73
49759;BME280;70329;45.524;10.194;2023-11-22T02:55:04;99684.97;;;7.60;96.49
49759;BME280;70329;45.524;10.194;2023-11-22T02:57:32;99690.69;;;7.53;97.17
49759;BME280;70329;45.524;10.194;2023-11-22T03:00:02;99688.28;;;7.62;97.75
49759;BME280;70329;45.524;10.194;2023-11-22T03:02:30;99685.72;;;7.40;98.88
49759;BME280;70329;45.524;10.194;2023-11-22T03:04:58;99686.53;;;7.41;98.76
49759;BME280;70329;45.524;10.194;2023-11-22T03:07:26;99689.25;;;7.36;99.41
49759;BME280;70329;45.524;10.194;2023-11-22T03:09:54;99692.81;;;7.36;99.35
49759;BME280;70329;45.524;10.194;2023-11-22T03:12:22;99691.69;;;7.32;99.52
49759;BME280;70329;45.524;10.194;2023-11-22T03:14:50;99694.69;;;7.31;99.21
49759;BME280;70329;45.524;10.194;2023-11-22T03:17:22;99686.78;;;7.34;99.05
49759;BME280;70329;45.524;10.194;2023-11-22T03:19:50;99693.03;;;7.30;98.78
49759;BME280;70329;45.524;10.194;2023-11-22T03:22:21;99701.25;;;7.40;97.78
49759;BME280;70329;45.524;10.194;2023-11-22T03:24:50;99697.94;;;7.33;97.57
49759;BME280;70329;45.524;10.194;2023-11-22T03:27:19;99701.19;;;7.30;96.79
49759;BME280;70329;45.524;10.194;2023-11-22T03:29:48;99691.91;;;7.21;97.01
49759;BME280;70329;45.524;10.194;2023-11-22T03:32:17;99685.03;;;7.08;97.91
49759;BME280;70329;45.524;10.194;2023-11-22T03:34:46;99687.22;;;7.06;98.35
49759;BME280;70329;45.524;10.194;2023-11-22T03:37:14;99689.34;;;7.04;98.72
49759;BME280;70329;45.524;10.194;2023-11-22T03:39:41;99704.63;;;7.05;98.90
49759;BME280;70329;45.524;10.194;2023-11-22T03:42:13;99697.03;;;7.12;97.69
49759;BME280;70329;45.524;10.194;2023-11-22T03:44:40;99698.38;;;7.10;97.98
49759;BME280;70329;45.524;10.194;2023-11-22T03:47:09;99703.00;;;7.09;97.85
49759;BME280;70329;45.524;10.194;2023-11-22T03:49:37;99701.06;;;6.99;98.96
49759;BME280;70329;45.524;10.194;2023-11-22T03:52:06;99710.56;;;6.97;99.44
49759;BME280;70329;45.524;10.194;2023-11-22T03:54:34;99708.16;;;7.06;98.64
49759;BME280;70329;45.524;10.194;2023-11-22T03:57:04;99718.56;;;7.14;98.42
49759;BME280;70329;45.524;10.194;2023-11-22T03:59:30;99711.47;;;7.18;97.53
49759;BME280;70329;45.524;10.194;2023-11-22T04:01:58;99722.34;;;7.13;98.00
49759;BME280;70329;45.524;10.194;2023-11-22T04:04:26;99721.22;;;7.03;98.39
49759;BME280;70329;45.524;10.194;2023-11-22T04:06:54;99717.19;;;7.11;97.40
49759;BME280;70329;45.524;10.194;2023-11-22T04:09:23;99723.13;;;7.03;97.57
49759;BME280;70329;45.524;10.194;2023-11-22T04:11:51;99721.28;;;7.14;96.71
49759;BME280;70329;45.524;10.194;2023-11-22T04:14:19;99720.97;;;7.05;96.65
49759;BME280;70329;45.524;10.194;2023-11-22T04:16:48;99726.66;;;7.03;97.25
49759;BME280;70329;45.524;10.194;2023-11-22T04:19:15;99729.31;;;6.93;97.50
49759;BME280;70329;45.524;10.194;2023-11-22T04:21:44;99721.97;;;6.94;96.96
49759;BME280;70329;45.524;10.194;2023-11-22T04:24:12;99721.50;;;7.07;96.45
49759;BME280;70329;45.524;10.194;2023-11-22T04:26:45;99727.16;;;6.95;96.37
49759;BME280;70329;45.524;10.194;2023-11-22T04:29:13;99729.38;;;7.03;96.47
49759;BME280;70329;45.524;10.194;2023-11-22T04:31:43;99732.34;;;6.97;96.36
49759;BME280;70329;45.524;10.194;2023-11-22T04:34:10;99726.53;;;6.83;97.29
49759;BME280;70329;45.524;10.194;2023-11-22T04:36:37;99739.56;;;6.81;96.48
49759;BME280;70329;45.524;10.194;2023-11-22T04:39:06;99737.94;;;6.80;97.04
49759;BME280;70329;45.524;10.194;2023-11-22T04:41:34;99738.50;;;6.82;96.37
49759;BME280;70329;45.524;10.194;2023-11-22T04:44:04;99745.06;;;6.86;96.11
49759;BME280;70329;45.524;10.194;2023-11-22T04:46:32;99746.19;;;6.90;95.09
49759;BME280;70329;45.524;10.194;2023-11-22T04:48:59;99746.19;;;6.90;95.27
49759;BME280;70329;45.524;10.194;2023-11-22T04:51:27;99744.47;;;6.79;96.24
49759;BME280;70329;45.524;10.194;2023-11-22T04:53:56;99744.47;;;6.79;96.04
49759;BME280;70329;45.524;10.194;2023-11-22T04:56:24;99746.50;;;6.99;94.13
49759;BME280;70329;45.524;10.194;2023-11-22T04:58:52;99748.72;;;7.07;93.77
49759;BME280;70329;45.524;10.194;2023-11-22T05:01:21;99738.66;;;7.02;93.82
49759;BME280;70329;45.524;10.194;2023-11-22T05:03:49;99749.22;;;6.99;94.70
49759;BME280;70329;45.524;10.194;2023-11-22T05:06:16;99752.25;;;7.02;94.46
49759;BME280;70329;45.524;10.194;2023-11-22T05:08:44;99758.72;;;6.91;94.77
49759;BME280;70329;45.524;10.194;2023-11-22T05:11:12;99762.84;;;6.99;92.95
49759;BME280;70329;45.524;10.194;2023-11-22T05:13:40;99765.59;;;7.04;91.97
49759;BME280;70329;45.524;10.194;2023-11-22T05:16:08;99772.88;;;6.93;91.99
49759;BME280;70329;45.524;10.194;2023-11-22T05:18:36;99773.94;;;6.92;92.45
49759;BME280;70329;45.524;10.194;2023-11-22T05:21:04;99776.94;;;6.91;92.41
49759;BME280;70329;45.524;10.194;2023-11-22T05:23:30;99789.41;;;6.87;92.25
49759;BME280;70329;45.524;10.194;2023-11-22T05:25:57;99782.13;;;6.92;92.00
49759;BME280;70329;45.524;10.194;2023-11-22T05:28:26;99781.59;;;6.95;91.65
49759;BME280;70329;45.524;10.194;2023-11-22T05:30:54;99796.28;;;6.89;91.77
49759;BME280;70329;45.524;10.194;2023-11-22T05:33:25;99792.94;;;6.82;92.09
49759;BME280;70329;45.524;10.194;2023-11-22T05:35:54;99793.50;;;6.84;92.19
49759;BME280;70329;45.524;10.194;2023-11-22T05:38:22;99801.44;;;6.91;91.52
49759;BME280;70329;45.524;10.194;2023-11-22T05:40:50;99795.44;;;6.89;90.94
49759;BME280;70329;45.524;10.194;2023-11-22T05:43:18;99799.44;;;6.81;90.95
49759;BME280;70329;45.524;10.194;2023-11-22T05:45:50;99814.22;;;6.90;90.57
49759;BME280;70329;45.524;10.194;2023-11-22T05:48:18;99818.84;;;6.90;90.37
49759;BME280;70329;45.524;10.194;2023-11-22T05:50:46;99818.09;;;6.94;90.01
49759;BME280;70329;45.524;10.194;2023-11-22T05:53:16;99826.63;;;7.08;89.18
49759;BME280;70329;45.524;10.194;2023-11-22T05:55:45;99823.38;;;7.11;89.13
49759;BME280;70329;45.524;10.194;2023-11-22T05:58:14;99825.94;;;6.91;89.94
49759;BME280;70329;45.524;10.194;2023-11-22T06:00:43;99830.88;;;6.94;89.35
49759;BME280;70329;45.524;10.194;2023-11-22T06:03:11;99838.56;;;7.02;89.17
49759;BME280;70329;45.524;10.194;2023-11-22T06:05:40;99841.44;;;6.90;89.49
49759;BME280;70329;45.524;10.194;2023-11-22T06:08:08;99842.75;;;6.83;89.64
49759;BME280;70329;45.524;10.194;2023-11-22T06:10:38;99848.00;;;6.89;89.00
49759;BME280;70329;45.524;10.194;2023-11-22T06:13:07;99852.09;;;6.92;88.35
49759;BME280;70329;45.524;10.194;2023-11-22T06:15:37;99847.16;;;6.89;88.91
49759;BME280;70329;45.524;10.194;2023-11-22T06:18:04;99858.28;;;6.87;88.62
49759;BME280;70329;45.524;10.194;2023-11-22T06:20:32;99859.69;;;6.90;89.21
49759;BME280;70329;45.524;10.194;2023-11-22T06:23:01;99867.75;;;6.80;89.30
49759;BME280;70329;45.524;10.194;2023-11-22T06:25:29;99875.16;;;6.84;88.58
49759;BME280;70329;45.524;10.194;2023-11-22T06:27:58;99882.31;;;6.95;88.96
49759;BME280;70329;45.524;10.194;2023-11-22T06:30:26;99881.25;;;6.96;88.66
49759;BME280;70329;45.524;10.194;2023-11-22T06:32:54;99885.72;;;7.08;87.44
49759;BME280;70329;45.524;10.194;2023-11-22T06:35:22;99880.28;;;7.13;91.72
49759;BME280;70329;45.524;10.194;2023-11-22T06:37:51;99886.38;;;7.20;88.69
49759;BME280;70329;45.524;10.194;2023-11-22T06:40:19;99893.06;;;7.07;87.27
49759;BME280;70329;45.524;10.194;2023-11-22T06:42:47;99891.94;;;7.03;86.68
49759;BME280;70329;45.524;10.194;2023-11-22T06:45:15;99893.28;;;7.00;86.59
49759;BME280;70329;45.524;10.194;2023-11-22T06:47:42;99892.47;;;7.00;86.18
49759;BME280;70329;45.524;10.194;2023-11-22T06:50:09;99890.66;;;7.16;85.33
49759;BME280;70329;45.524;10.194;2023-11-22T06:52:39;99903.56;;;7.25;84.76
49759;BME280;70329;45.524;10.194;2023-11-22T06:55:08;99910.25;;;7.13;85.38
49759;BME280;70329;45.524;10.194;2023-11-22T06:57:34;99916.81;;;7.12;85.48
49759;BME280;70329;45.524;10.194;2023-11-22T07:00:02;99917.00;;;7.05;85.93
49759;BME280;70329;45.524;10.194;2023-11-22T07:02:33;99912.16;;;7.12;85.37
49759;BME280;70329;45.524;10.194;2023-11-22T07:05:01;99917.34;;;7.14;85.06
49759;BME280;70329;45.524;10.194;2023-11-22T07:07:31;99920.25;;;7.02;85.92
49759;BME280;70329;45.524;10.194;2023-11-22T07:09:59;99914.88;;;7.12;85.01
49759;BME280;70329;45.524;10.194;2023-11-22T07:12:27;99922.53;;;7.15;83.77
49759;BME280;70329;45.524;10.194;2023-11-22T07:14:55;99919.88;;;7.20;83.17
49759;BME280;70329;45.524;10.194;2023-11-22T07:17:23;99927.84;;;7.32;82.15
49759;BME280;70329;45.524;10.194;2023-11-22T07:19:55;99928.78;;;7.42;81.29
49759;BME280;70329;45.524;10.194;2023-11-22T07:22:23;99931.56;;;7.52;80.79
49759;BME280;70329;45.524;10.194;2023-11-22T07:24:53;99934.31;;;7.57;80.54
49759;BME280;70329;45.524;10.194;2023-11-22T07:27:21;99942.31;;;7.69;79.59
49759;BME280;70329;45.524;10.194;2023-11-22T07:29:52;99941.78;;;7.72;79.64
49759;BME280;70329;45.524;10.194;2023-11-22T07:32:20;99942.31;;;7.69;79.83
49759;BME280;70329;45.524;10.194;2023-11-22T07:34:47;99943.19;;;7.80;80.14
49759;BME280;70329;45.524;10.194;2023-11-22T07:37:16;99947.25;;;7.77;80.49
49759;BME280;70329;45.524;10.194;2023-11-22T07:39:45;99949.75;;;7.79;80.08
49759;BME280;70329;45.524;10.194;2023-11-22T07:42:13;99961.53;;;7.89;80.24
49759;BME280;70329;45.524;10.194;2023-11-22T07:44:41;99963.66;;;7.82;80.21
49759;BME280;70329;45.524;10.194;2023-11-22T07:47:09;99970.44;;;7.80;80.45
49759;BME280;70329;45.524;10.194;2023-11-22T07:49:39;99973.84;;;7.97;78.98
49759;BME280;70329;45.524;10.194;2023-11-22T07:52:08;99981.81;;;8.08;77.85
49759;BME280;70329;45.524;10.194;2023-11-22T07:54:41;99986.81;;;8.21;77.02
49759;BME280;70329;45.524;10.194;2023-11-22T07:57:12;99985.72;;;8.23;76.72
49759;BME280;70329;45.524;10.194;2023-11-22T07:59:40;99988.84;;;8.36;75.45
49759;BME280;70329;45.524;10.194;2023-11-22T08:02:08;99994.38;;;8.51;73.98
49759;BME280;70329;45.524;10.194;2023-11-22T08:04:38;99993.88;;;8.69;72.47
49759;BME280;70329;45.524;10.194;2023-11-22T08:07:07;100000.19;;;8.80;72.14
49759;BME280;70329;45.524;10.194;2023-11-22T08:09:33;100001.31;;;8.89;71.50
49759;BME280;70329;45.524;10.194;2023-11-22T08:12:03;100000.25;;;8.90;71.87
49759;BME280;70329;45.524;10.194;2023-11-22T08:14:31;100006.50;;;8.91;73.13
49759;BME280;70329;45.524;10.194;2023-11-22T08:16:58;100006.56;;;9.06;70.96
49759;BME280;70329;45.524;10.194;2023-11-22T08:19:28;100008.22;;;9.12;70.93
49759;BME280;70329;45.524;10.194;2023-11-22T08:21:56;100019.44;;;9.15;70.92
49759;BME280;70329;45.524;10.194;2023-11-22T08:24:24;100013.44;;;9.18;70.94
49759;BME280;70329;45.524;10.194;2023-11-22T08:26:53;100019.16;;;9.27;70.73
49759;BME280;70329;45.524;10.194;2023-11-22T08:29:22;100013.44;;;9.38;70.26
49759;BME280;70329;45.524;10.194;2023-11-22T08:31:50;100009.91;;;9.63;67.57
49759;BME280;70329;45.524;10.194;2023-11-22T08:34:18;100021.41;;;9.70;67.31
49759;BME280;70329;45.524;10.194;2023-11-22T08:36:46;100016.22;;;9.79;67.37
49759;BME280;70329;45.524;10.194;2023-11-22T08:39:17;100010.19;;;9.87;66.91
49759;BME280;70329;45.524;10.194;2023-11-22T08:41:45;100009.63;;;10.00;66.18
49759;BME280;70329;45.524;10.194;2023-11-22T08:44:16;100019.47;;;10.06;66.00
49759;BME280;70329;45.524;10.194;2023-11-22T08:46:45;100026.84;;;10.11;65.53
49759;BME280;70329;45.524;10.194;2023-11-22T08:49:16;100026.84;;;10.11;65.26
49759;BME280;70329;45.524;10.194;2023-11-22T08:51:45;100022.19;;;10.11;65.48
49759;BME280;70329;45.524;10.194;2023-11-22T08:54:16;100030.69;;;10.25;64.17
49759;BME280;70329;45.524;10.194;2023-11-22T08:56:43;100043.53;;;10.39;62.61
49759;BME280;70329;45.524;10.194;2023-11-22T08:59:12;100049.81;;;10.55;61.65
49759;BME280;70329;45.524;10.194;2023-11-22T09:01:42;100040.44;;;10.71;59.57
49759;BME280;70329;45.524;10.194;2023-11-22T09:04:17;100046.16;;;10.70;60.38
49759;BME280;70329;45.524;10.194;2023-11-22T09:06:46;100046.72;;;10.77;61.02
49759;BME280;70329;45.524;10.194;2023-11-22T09:09:14;100052.13;;;10.87;61.42
49759;BME280;70329;45.524;10.194;2023-11-22T09:11:43;100049.34;;;11.02;60.12
49759;BME280;70329;45.524;10.194;2023-11-22T09:14:11;100052.56;;;11.14;59.67
49759;BME280;70329;45.524;10.194;2023-11-22T09:16:38;100047.88;;;11.20;59.99
49759;BME280;70329;45.524;10.194;2023-11-22T09:19:06;100055.22;;;11.29;59.98
49759;BME280;70329;45.524;10.194;2023-11-22T09:21:35;100062.06;;;11.32;59.80
49759;BME280;70329;45.524;10.194;2023-11-22T09:24:03;100070.25;;;11.37;60.10
49759;BME280;70329;45.524;10.194;2023-11-22T09:26:33;100075.97;;;11.45;60.53
49759;BME280;70329;45.524;10.194;2023-11-22T09:29:01;100078.09;;;11.58;60.09
49759;BME280;70329;45.524;10.194;2023-11-22T09:31:28;100082.97;;;11.72;59.25
49759;BME280;70329;45.524;10.194;2023-11-22T09:33:56;100097.47;;;11.77;58.54
49759;BME280;70329;45.524;10.194;2023-11-22T09:36:24;100096.88;;;11.85;57.97
49759;BME280;70329;45.524;10.194;2023-11-22T09:38:55;100103.13;;;11.91;58.06
49759;BME280;70329;45.524;10.194;2023-11-22T09:41:24;100101.69;;;11.98;57.43
49759;BME280;70329;45.524;10.194;2023-11-22T09:43:53;100112.94;;;12.02;57.60
49759;BME280;70329;45.524;10.194;2023-11-22T09:46:22;100116.44;;;12.07;58.11
49759;BME280;70329;45.524;10.194;2023-11-22T09:48:51;100123.81;;;12.12;58.69
49759;BME280;70329;45.524;10.194;2023-11-22T09:51:23;100124.31;;;12.19;58.62
49759;BME280;70329;45.524;10.194;2023-11-22T09:53:58;100133.03;;;12.26;58.97
49759;BME280;70329;45.524;10.194;2023-11-22T09:56:27;100122.00;;;12.31;59.19
49759;BME280;70329;45.524;10.194;2023-11-22T09:58:56;100113.19;;;12.34;59.40
49759;BME280;70329;45.524;10.194;2023-11-22T10:01:26;100127.19;;;12.38;59.35
49759;BME280;70329;45.524;10.194;2023-11-22T10:03:58;100129.88;;;12.43;59.22
49759;BME280;70329;45.524;10.194;2023-11-22T10:06:31;100130.38;;;12.50;59.38
49759;BME280;70329;45.524;10.194;2023-11-22T10:09:04;100136.34;;;12.57;59.19
49759;BME280;70329;45.524;10.194;2023-11-22T10:11:35;100125.59;;;12.60;59.08
49759;BME280;70329;45.524;10.194;2023-11-22T10:14:05;100123.91;;;12.64;60.36
49759;BME280;70329;45.524;10.194;2023-11-22T10:16:33;100126.31;;;12.71;62.58
49759;BME280;70329;45.524;10.194;2023-11-22T10:19:01;100123.22;;;12.77;64.06
49759;BME280;70329;45.524;10.194;2023-11-22T10:21:32;100117.97;;;12.81;64.66
49759;BME280;70329;45.524;10.194;2023-11-22T10:24:01;100111.13;;;12.78;66.50
49759;BME280;70329;45.524;10.194;2023-11-22T10:26:31;100111.91;;;12.79;66.23
49759;BME280;70329;45.524;10.194;2023-11-22T10:28:59;100110.50;;;12.81;67.01
49759;BME280;70329;45.524;10.194;2023-11-22T10:31:29;100111.34;;;12.82;67.56
49759;BME280;70329;45.524;10.194;2023-11-22T10:33:55;100107.78;;;12.81;68.52
49759;BME280;70329;45.524;10.194;2023-11-22T10:36:24;100118.56;;;12.78;68.86
49759;BME280;70329;45.524;10.194;2023-11-22T10:38:50;100122.56;;;12.85;68.46
49759;BME280;70329;45.524;10.194;2023-11-22T10:41:21;100119.19;;;12.94;68.05
49759;BME280;70329;45.524;10.194;2023-11-22T10:43:52;100126.34;;;12.95;68.38
49759;BME280;70329;45.524;10.194;2023-11-22T10:46:24;100126.34;;;12.95;69.69
49759;BME280;70329;45.524;10.194;2023-11-22T10:48:54;100127.75;;;12.92;69.78
49759;BME280;70329;45.524;10.194;2023-11-22T10:51:26;100127.75;;;12.92;69.76
49759;BME280;70329;45.524;10.194;2023-11-22T10:53:58;100137.34;;;12.95;69.84
49759;BME280;70329;45.524;10.194;2023-11-22T10:56:26;100133.25;;;12.92;68.71
49759;BME280;70329;45.524;10.194;2023-11-22T10:58:57;100136.25;;;12.91;68.48
49759;BME280;70329;45.524;10.194;2023-11-22T11:01:26;100150.53;;;12.93;68.62
49759;BME280;70329;45.524;10.194;2023-11-22T11:03:59;100155.94;;;13.03;71.27
49759;BME280;70329;45.524;10.194;2023-11-22T11:06:32;100156.44;;;13.05;70.28
49759;BME280;70329;45.524;10.194;2023-11-22T11:09:03;100163.31;;;13.07;70.61
49759;BME280;70329;45.524;10.194;2023-11-22T11:11:34;100160.03;;;13.05;70.88
49759;BME280;70329;45.524;10.194;2023-11-22T11:14:05;100168.28;;;13.05;71.49
49759;BME280;70329;45.524;10.194;2023-11-22T11:16:36;100179.28;;;13.05;71.93
49759;BME280;70329;45.524;10.194;2023-11-22T11:19:08;100168.84;;;13.02;71.69
49759;BME280;70329;45.524;10.194;2023-11-22T11:21:37;100165.28;;;13.02;70.71
49759;BME280;70329;45.524;10.194;2023-11-22T11:24:07;100168.84;;;13.02;70.97
49759;BME280;70329;45.524;10.194;2023-11-22T11:26:34;100182.28;;;13.04;70.66
49759;BME280;70329;45.524;10.194;2023-11-22T11:29:04;100183.69;;;13.01;70.22
49759;BME280;70329;45.524;10.194;2023-11-22T11:31:38;100180.91;;;13.06;70.33
49759;BME280;70329;45.524;10.194;2023-11-22T11:34:08;100176.22;;;13.07;71.32
49759;BME280;70329;45.524;10.194;2023-11-22T11:36:37;100173.47;;;13.07;71.87
49759;BME280;70329;45.524;10.194;2023-11-22T11:39:06;100169.34;;;13.09;71.78
49759;BME280;70329;45.524;10.194;2023-11-22T11:41:35;100167.97;;;13.07;70.85
49759;BME280;70329;45.524;10.194;2023-11-22T11:44:08;100169.91;;;13.06;71.63
49759;BME280;70329;45.524;10.194;2023-11-22T11:46:38;100167.44;;;13.05;70.81
49759;BME280;70329;45.524;10.194;2023-11-22T11:49:07;100176.84;;;12.99;70.04
49759;BME280;70329;45.524;10.194;2023-11-22T11:51:35;100174.09;;;12.99;71.52
49759;BME280;70329;45.524;10.194;2023-11-22T11:54:04;100176.03;;;12.98;71.45
49759;BME280;70329;45.524;10.194;2023-11-22T11:56:33;100177.44;;;12.96;71.64
49759;BME280;70329;45.524;10.194;2023-11-22T11:59:02;100170.00;;;12.96;72.46
49759;BME280;70329;45.524;10.194;2023-11-22T12:01:31;100160.94;;;12.96;71.75
49759;BME280;70329;45.524;10.194;2023-11-22T12:04:00;100156.84;;;12.93;71.21
49759;BME280;70329;45.524;10.194;2023-11-22T12:06:28;100170.06;;;12.91;71.11
49759;BME280;70329;45.524;10.194;2023-11-22T12:08:57;100168.41;;;12.90;71.01
49759;BME280;70329;45.524;10.194;2023-11-22T12:11:25;100172.31;;;12.89;70.40
49759;BME280;70329;45.524;10.194;2023-11-22T12:13:54;100167.63;;;12.90;70.34
49759;BME280;70329;45.524;10.194;2023-11-22T12:16:23;100179.13;;;12.92;70.03
49759;BME280;70329;45.524;10.194;2023-11-22T12:18:52;100181.38;;;12.90;69.12
49759;BME280;70329;45.524;10.194;2023-11-22T12:21:20;100195.34;;;12.93;68.26
49759;BME280;70329;45.524;10.194;2023-11-22T12:23:48;100186.03;;;12.89;68.24
49759;BME280;70329;45.524;10.194;2023-11-22T12:26:17;100179.41;;;12.90;68.85
49759;BME280;70329;45.524;10.194;2023-11-22T12:28:48;100187.38;;;12.92;69.62
49759;BME280;70329;45.524;10.194;2023-11-22T12:31:15;100182.72;;;12.92;68.93
49759;BME280;70329;45.524;10.194;2023-11-22T12:33:44;100179.66;;;12.94;68.07
49759;BME280;70329;45.524;10.194;2023-11-22T12:36:16;100173.34;;;12.93;68.15
49759;BME280;70329;45.524;10.194;2023-11-22T12:38:44;100173.41;;;12.88;68.16
49759;BME280;70329;45.524;10.194;2023-11-22T12:41:14;100168.22;;;12.81;68.37
49759;BME280;70329;45.524;10.194;2023-11-22T12:43:42;100164.69;;;12.81;67.59
49759;BME280;70329;45.524;10.194;2023-11-22T12:46:09;100171.28;;;12.80;67.04
49759;BME280;70329;45.524;10.194;2023-11-22T12:48:42;100185.31;;;12.78;66.64
49759;BME280;70329;45.524;10.194;2023-11-22T12:51:16;100190.81;;;12.78;66.00
49759;BME280;70329;45.524;10.194;2023-11-22T12:53:45;100187.53;;;12.76;67.32
49759;BME280;70329;45.524;10.194;2023-11-22T12:56:15;100194.91;;;12.81;67.05
49759;BME280;70329;45.524;10.194;2023-11-22T12:58:42;100196.59;;;12.77;66.85
49759;BME280;70329;45.524;10.194;2023-11-22T13:01:10;100194.16;;;12.75;66.02